CheckWX is a tool to help pilots better visualize weather data.  It is not intended as a substitute for an official pre-flight weather briefing.

02:56:33 UTC

KBTL METAR
W K Kellogg Airport
Battle Creek, Michigan, USA
Current

1 hour ago

KBTL 230153Z 35007KT 10SM CLR 19/11 A3003 RMK AO2 SLP165 T01940106
Observed
Jul-23 @ 01:53 UTC
Wind
  • 350° at 7 KTS
Visibility
10 SM
Flight Rules
VFR
Cloud Levels
  • Clear skies
Temperature
19°C / 66°F
Dewpoint
11°C / 52°F
Humidity
60%
Altimeter
30.03" Hg
Pressure
1016.92 hPa
Previous

2 hours ago

KBTL 230053Z 35006KT 10SM CLR 22/12 A3002 RMK AO2 SLP162 T02170117
Observed
Jul-23 @ 00:53 UTC
Wind
  • 350° at 6 KTS
Visibility
10 SM
Flight Rules
VFR
Cloud Levels
  • Clear skies
Temperature
22°C / 72°F
Dewpoint
12°C / 54°F
Humidity
53%
Altimeter
30.02" Hg
Pressure
1016.62 hPa
Previous

3 hours ago

KBTL 222353Z 36007KT 10SM CLR 24/13 A3000 RMK AO2 SLP156 T02390128 10256 20228 51004
Observed
Jul-22 @ 23:53 UTC
Wind
  • 360° at 7 KTS
Visibility
10 SM
Flight Rules
VFR
Cloud Levels
  • Clear skies
Temperature
24°C / 75°F
Dewpoint
13°C / 55°F
Humidity
50%
Altimeter
30" Hg
Pressure
1015.92 hPa